PILOTS ONLINE: 186    ATC ONLINE: 19

EGXW

RAF Waddington

Location

IATA WTN
City Waddington
Country  United Kingdom
Latitude 53° 9' 58" N
Longitude 0° 31' 25" W
Elevation 231 ft
Type Medium Airport

Map

Weather

METAR
2014/09/03 04:25
EGXW 030425Z 09004KT 2000 BR OVC001 14/14 Q1024 RED
TAF
2014/09/03 03:03
TAF TAF EGXW 030154Z 0303/0321 10005KT 9999 SCT045 PROB40 0303/0308 4000 BR SCT003 PROB30 0303/0307 0500 FG OVC000 PROB30 
      TEMPO 0308/0310 SCT010

Runways

02/20 9000 ft / 200 ft

Outbound flights

Callsign Flying to Pilot ATD/STD ETA Aircraft

Inbound flights

Callsign Flying from Pilot ATD ETA Aircraft